Time;durP1;ratioP1;P1;durP2;ratioP2;P2;SDS_P1;SDS_P2;PMS_P1;PMS_P2;Temp;Humidity;BMP_temperature;BMP_pressure;BME280_temperature;BME280_humidity;BME280_pressure;Samples;Min_cycle;Max_cycle;Signal;HPM_P1;HPM_P2
2023/03/16 00:01:31;;;;;;;7.93;3.40;;;2.50;99.90;;;;;;4825842;29;21025;-57
2023/03/16 00:04:17;;;;;;;7.03;3.17;;;2.50;99.90;;;;;;4826683;29;20960;-56
2023/03/16 00:06:48;;;;;;;10.07;4.40;;;2.30;99.90;;;;;;4826386;29;21025;-56
2023/03/16 00:09:20;;;;;;;8.03;2.77;;;2.20;99.90;;;;;;4826395;29;20841;-57
2023/03/16 00:11:50;;;;;;;9.33;2.90;;;2.10;99.90;;;;;;4823529;29;20541;-56
2023/03/16 00:14:21;;;;;;;8.43;2.40;;;2.00;99.90;;;;;;4826217;29;20483;-56
2023/03/16 00:16:53;;;;;;;10.40;2.70;;;2.00;99.90;;;;;;4826163;29;21076;-56
2023/03/16 00:19:26;;;;;;;6.50;2.43;;;2.00;99.90;;;;;;4836316;29;21005;-57
2023/03/16 00:21:57;;;;;;;6.50;2.60;;;2.00;99.90;;;;;;4843015;29;20855;-56
2023/03/16 00:24:27;;;;;;;7.07;2.33;;;1.90;99.90;;;;;;4844633;29;20515;-56
2023/03/16 00:27:00;;;;;;;9.27;2.40;;;1.90;99.90;;;;;;4841343;29;20486;-56
2023/03/16 00:29:28;;;;;;;8.10;2.20;;;1.90;99.90;;;;;;4842087;29;20548;-57
2023/03/16 00:32:04;;;;;;;6.17;2.83;;;1.90;99.90;;;;;;4844513;29;20572;-56
2023/03/16 00:34:45;;;;;;;7.83;2.30;;;1.80;99.90;;;;;;4842969;29;21015;-56
2023/03/16 00:37:17;;;;;;;7.07;2.47;;;1.80;99.90;;;;;;4844322;29;20561;-56
2023/03/16 00:40:06;;;;;;;5.33;2.20;;;1.80;99.90;;;;;;4840557;29;20474;-57
2023/03/16 00:42:36;;;;;;;4.83;2.47;;;1.90;99.90;;;;;;4810894;29;20534;-56
2023/03/16 00:45:13;;;;;;;8.10;2.73;;;1.80;99.90;;;;;;4824384;29;20478;-56
2023/03/16 00:47:42;;;;;;;8.87;2.83;;;1.70;99.90;;;;;;4824484;29;21015;-57
2023/03/16 00:50:22;;;;;;;6.30;2.70;;;2.10;99.90;;;;;;4837509;29;20534;-57
2023/03/16 00:52:53;;;;;;;8.33;3.00;;;2.40;99.90;;;;;;4826044;29;20514;-57
2023/03/16 00:55:22;;;;;;;12.37;3.73;;;2.30;99.90;;;;;;4840529;29;20504;-57
2023/03/16 00:57:50;;;;;;;8.00;3.30;;;2.00;99.90;;;;;;4842534;29;20557;-57
2023/03/16 01:00:24;;;;;;;9.87;3.50;;;1.90;99.90;;;;;;4843511;29;20467;-57
2023/03/16 01:02:55;;;;;;;8.57;3.20;;;1.80;99.90;;;;;;4842639;29;20526;-56
2023/03/16 01:05:41;;;;;;;8.83;3.27;;;1.90;99.90;;;;;;4843971;29;20836;-57
2023/03/16 01:08:21;;;;;;;8.03;3.23;;;1.80;99.90;;;;;;4841757;29;20492;-57
2023/03/16 01:10:51;;;;;;;7.63;2.87;;;1.70;99.90;;;;;;4832760;29;20526;-56
2023/03/16 01:13:28;;;;;;;6.33;3.70;;;1.70;99.90;;;;;;4824097;29;21023;-57
2023/03/16 01:16:01;;;;;;;6.50;3.87;;;1.80;99.90;;;;;;4825845;29;20556;-57
2023/03/16 01:18:33;;;;;;;8.60;3.60;;;1.70;99.90;;;;;;4828489;29;20538;-57
2023/03/16 01:21:09;;;;;;;6.40;3.43;;;1.80;99.90;;;;;;4843503;29;21000;-57
2023/03/16 01:23:44;;;;;;;7.03;3.20;;;1.70;99.90;;;;;;4843550;29;20980;-57
2023/03/16 01:26:14;;;;;;;6.57;3.33;;;1.60;99.90;;;;;;4842596;29;20560;-57
2023/03/16 01:28:45;;;;;;;8.70;3.83;;;1.60;99.90;;;;;;4827471;29;20907;-57
2023/03/16 01:31:23;;;;;;;7.50;3.90;;;1.60;99.90;;;;;;4843045;29;20497;-57
2023/03/16 01:33:59;;;;;;;6.73;3.73;;;1.60;99.90;;;;;;4842055;29;20473;-57
2023/03/16 01:36:39;;;;;;;8.07;3.80;;;1.60;99.90;;;;;;4843023;29;20464;-57
2023/03/16 01:39:22;;;;;;;5.83;3.77;;;1.60;99.90;;;;;;4841905;29;20842;-57
2023/03/16 01:41:55;;;;;;;11.30;3.63;;;1.60;99.90;;;;;;4823604;29;20516;-56
2023/03/16 01:44:29;;;;;;;6.87;3.70;;;1.60;99.90;;;;;;4824941;29;20563;-56
2023/03/16 01:47:05;;;;;;;7.47;3.67;;;1.60;99.90;;;;;;4824976;29;20477;-56
2023/03/16 01:49:47;;;;;;;6.20;3.73;;;1.50;99.90;;;;;;4831520;29;20493;-57
2023/03/16 01:52:41;;;;;;;6.37;3.80;;;1.60;99.90;;;;;;4831314;29;20510;-57
2023/03/16 01:55:15;;;;;;;12.43;4.70;;;1.60;99.90;;;;;;4824718;29;20533;-57
2023/03/16 01:58:04;;;;;;;8.27;3.90;;;1.50;99.90;;;;;;4824672;29;20489;-57
2023/03/16 02:00:40;;;;;;;7.83;3.93;;;1.50;99.90;;;;;;4822042;29;21017;-57
2023/03/16 02:03:20;;;;;;;6.13;4.00;;;1.50;99.90;;;;;;4823369;29;20509;-57
2023/03/16 02:06:03;;;;;;;7.90;3.80;;;1.50;99.90;;;;;;4823433;29;20473;-57
2023/03/16 02:08:37;;;;;;;6.90;3.97;;;1.50;99.90;;;;;;4823253;29;20535;-56
2023/03/16 02:11:07;;;;;;;8.03;4.00;;;1.40;99.90;;;;;;4823994;29;20489;-57
2023/03/16 02:13:48;;;;;;;5.83;3.50;;;1.40;99.90;;;;;;4823362;29;20481;-57
2023/03/16 02:16:23;;;;;;;7.83;3.40;;;1.40;99.90;;;;;;4823239;29;20485;-57
2023/03/16 02:18:55;;;;;;;6.70;3.20;;;1.50;99.90;;;;;;4844406;29;20487;-56
2023/03/16 02:21:45;;;;;;;7.83;3.23;;;1.40;99.90;;;;;;4842109;29;20832;-57
2023/03/16 02:24:44;;;;;;;6.67;3.77;;;1.40;99.90;;;;;;4826871;29;20477;-57
2023/03/16 02:27:27;;;;;;;7.47;3.40;;;1.40;99.90;;;;;;4824712;29;20875;-56
2023/03/16 02:30:09;;;;;;;7.60;3.13;;;1.30;99.90;;;;;;4824505;29;20479;-57
2023/03/16 02:32:53;;;;;;;5.97;3.00;;;1.30;99.90;;;;;;4822756;29;20847;-56
2023/03/16 02:35:31;;;;;;;6.57;3.10;;;1.30;99.90;;;;;;4837415;29;20843;-57
2023/03/16 02:38:03;;;;;;;7.10;3.97;;;1.30;99.90;;;;;;4824525;29;21033;-57
2023/03/16 02:40:43;;;;;;;5.67;3.60;;;1.30;99.90;;;;;;4823877;29;20809;-56
2023/03/16 02:43:18;;;;;;;6.00;3.37;;;1.30;99.90;;;;;;4823979;29;20494;-56
2023/03/16 02:46:14;;;;;;;9.20;3.60;;;1.30;99.90;;;;;;4838022;29;20477;-57
2023/03/16 02:48:49;;;;;;;8.83;3.53;;;1.30;99.90;;;;;;4827925;29;21057;-56
2023/03/16 02:51:21;;;;;;;10.57;3.70;;;1.30;99.90;;;;;;4836497;29;20860;-56
2023/03/16 02:53:49;;;;;;;6.97;3.40;;;1.30;99.90;;;;;;4823032;29;20570;-56
2023/03/16 02:56:28;;;;;;;6.93;3.90;;;1.30;99.90;;;;;;4825117;29;20841;-57
2023/03/16 02:59:00;;;;;;;6.67;3.20;;;1.30;99.90;;;;;;4824879;29;21042;-56
2023/03/16 03:01:36;;;;;;;5.73;3.17;;;1.30;99.90;;;;;;4823645;29;21048;-56
2023/03/16 03:04:06;;;;;;;6.57;3.40;;;1.30;99.90;;;;;;4840141;29;20533;-57
2023/03/16 03:06:44;;;;;;;7.57;3.50;;;1.30;99.90;;;;;;4850044;29;20477;-56
2023/03/16 03:09:21;;;;;;;7.60;3.20;;;1.20;99.90;;;;;;4848809;29;20477;-57
2023/03/16 03:11:58;;;;;;;9.10;3.40;;;1.30;99.90;;;;;;4824680;29;20480;-57
2023/03/16 03:14:28;;;;;;;6.47;3.40;;;1.20;99.90;;;;;;4823882;29;20863;-56
2023/03/16 03:17:03;;;;;;;6.57;3.50;;;1.30;99.90;;;;;;4823823;29;20536;-57
2023/03/16 03:19:37;;;;;;;6.27;3.17;;;1.30;99.90;;;;;;4844435;29;20477;-57
2023/03/16 03:22:07;;;;;;;7.37;3.23;;;1.30;99.90;;;;;;4841793;29;20983;-57
2023/03/16 03:24:37;;;;;;;8.40;3.50;;;1.30;99.90;;;;;;4840516;29;20509;-56
2023/03/16 03:27:11;;;;;;;6.37;3.30;;;1.30;99.90;;;;;;4832884;29;20480;-57
2023/03/16 03:29:40;;;;;;;6.53;2.80;;;1.30;99.90;;;;;;4840135;29;20537;-56
2023/03/16 03:32:18;;;;;;;6.37;2.77;;;1.30;99.90;;;;;;4839955;29;20481;-57
2023/03/16 03:34:49;;;;;;;5.67;2.80;;;1.30;99.90;;;;;;4841942;29;20500;-57
2023/03/16 03:37:20;;;;;;;5.43;2.87;;;1.30;99.90;;;;;;4841752;29;20494;-56
2023/03/16 03:39:52;;;;;;;8.13;3.13;;;1.20;99.90;;;;;;4838866;29;20490;-57
2023/03/16 03:42:36;;;;;;;4.73;2.90;;;1.20;99.90;;;;;;4837265;29;20481;-57
2023/03/16 03:45:12;;;;;;;4.43;2.80;;;1.20;99.90;;;;;;4823418;29;20497;-57
2023/03/16 03:47:47;;;;;;;5.00;2.80;;;1.20;99.90;;;;;;4822268;29;20467;-56
2023/03/16 03:50:26;;;;;;;5.23;2.87;;;1.20;99.90;;;;;;4835176;29;20502;-56
2023/03/16 03:53:21;;;;;;;4.50;2.73;;;1.20;99.90;;;;;;4807342;29;20545;-57
2023/03/16 03:56:21;;;;;;;7.63;2.63;;;1.20;99.90;;;;;;4805232;29;20520;-56
2023/03/16 03:58:51;;;;;;;6.33;2.80;;;1.10;99.90;;;;;;4819033;29;20918;-56
2023/03/16 04:01:35;;;;;;;7.33;2.97;;;1.20;99.90;;;;;;4803450;29;20486;-56
2023/03/16 04:04:14;;;;;;;5.87;3.00;;;1.20;99.90;;;;;;4806120;29;20533;-56
2023/03/16 04:06:45;;;;;;;4.97;2.67;;;1.20;99.90;;;;;;4808495;29;21003;-56
2023/03/16 04:09:20;;;;;;;5.03;2.93;;;1.20;99.90;;;;;;4807088;29;21000;-56
2023/03/16 04:11:56;;;;;;;5.30;2.87;;;1.20;99.90;;;;;;4822137;29;20485;-56
2023/03/16 04:14:32;;;;;;;6.73;2.77;;;1.20;99.90;;;;;;4825210;29;20510;-56
2023/03/16 04:17:11;;;;;;;6.17;2.77;;;1.10;99.90;;;;;;4840290;29;20573;-56
2023/03/16 04:19:46;;;;;;;6.80;3.10;;;1.20;99.90;;;;;;4822589;29;20537;-57
2023/03/16 04:22:17;;;;;;;4.77;2.50;;;1.10;99.90;;;;;;4843216;29;20484;-56
2023/03/16 04:24:51;;;;;;;5.53;2.43;;;1.10;99.90;;;;;;4843137;29;20505;-56
2023/03/16 04:27:36;;;;;;;6.90;2.57;;;1.10;99.90;;;;;;4843528;29;20483;-56
2023/03/16 04:30:11;;;;;;;5.97;2.83;;;1.10;99.90;;;;;;4842951;29;20473;-56
2023/03/16 04:32:57;;;;;;;5.63;2.80;;;1.10;99.90;;;;;;4842794;29;20553;-56
2023/03/16 04:35:35;;;;;;;6.30;2.70;;;1.10;99.90;;;;;;4839301;29;20477;-56
2023/03/16 04:38:13;;;;;;;8.10;3.50;;;1.10;99.90;;;;;;4817404;29;20489;-57
2023/03/16 04:40:51;;;;;;;5.57;3.17;;;1.00;99.90;;;;;;4817570;29;20478;-56
2023/03/16 04:43:27;;;;;;;4.77;3.20;;;1.00;99.90;;;;;;4816864;29;20563;-56
2023/03/16 04:46:08;;;;;;;4.97;3.27;;;1.00;99.90;;;;;;4824131;29;20478;-56
2023/03/16 04:48:42;;;;;;;5.73;2.70;;;1.10;99.90;;;;;;4831936;29;20507;-56
2023/03/16 04:51:16;;;;;;;6.70;2.87;;;1.10;99.90;;;;;;4839410;29;20846;-57
2023/03/16 04:53:58;;;;;;;9.77;3.37;;;1.10;99.90;;;;;;4824331;29;20469;-56
2023/03/16 04:56:40;;;;;;;7.27;2.70;;;1.10;99.90;;;;;;4825529;29;20469;-56
2023/03/16 04:59:18;;;;;;;8.57;2.83;;;1.10;99.90;;;;;;4824618;29;20506;-56
2023/03/16 05:02:01;;;;;;;4.87;2.67;;;1.20;99.90;;;;;;4824046;29;20560;-56
2023/03/16 05:04:34;;;;;;;7.40;3.77;;;1.20;99.90;;;;;;4824222;29;20509;-56
2023/03/16 05:07:23;;;;;;;7.80;3.30;;;1.20;99.90;;;;;;4824332;29;20486;-57
2023/03/16 05:09:58;;;;;;;9.10;2.90;;;1.20;99.90;;;;;;4809714;29;20501;-56
2023/03/16 05:12:35;;;;;;;4.83;2.87;;;1.20;99.90;;;;;;4832190;29;20481;-56
2023/03/16 05:15:11;;;;;;;5.00;2.37;;;1.30;99.90;;;;;;4825213;29;20471;-57
2023/03/16 05:17:47;;;;;;;5.17;3.00;;;1.30;99.90;;;;;;4825368;29;20476;-57
2023/03/16 05:20:33;;;;;;;6.53;3.17;;;1.30;99.90;;;;;;4839663;29;20479;-56
2023/03/16 05:23:17;;;;;;;6.83;2.80;;;1.30;99.90;;;;;;4843860;29;20469;-56
2023/03/16 05:25:59;;;;;;;4.63;2.63;;;1.30;99.90;;;;;;4842494;29;20540;-57
2023/03/16 05:28:34;;;;;;;7.60;3.07;;;1.40;99.90;;;;;;4815632;29;20489;-57
2023/03/16 05:31:18;;;;;;;7.40;2.90;;;1.40;99.90;;;;;;4806391;29;20493;-57
2023/03/16 05:33:56;;;;;;;5.93;2.80;;;1.40;99.90;;;;;;4824667;29;20562;-56
2023/03/16 05:36:25;;;;;;;7.03;3.03;;;1.40;99.90;;;;;;4819287;29;20508;-56
2023/03/16 05:39:01;;;;;;;5.60;2.80;;;1.40;99.90;;;;;;4825539;29;20549;-56
2023/03/16 05:41:43;;;;;;;5.63;2.83;;;1.40;99.90;;;;;;4823534;29;20471;-56
2023/03/16 05:44:21;;;;;;;6.27;3.10;;;1.50;99.90;;;;;;4816712;29;20482;-57
2023/03/16 05:47:04;;;;;;;7.03;3.83;;;1.50;99.90;;;;;;4846682;29;20545;-57
2023/03/16 05:49:42;;;;;;;9.57;3.90;;;1.50;99.90;;;;;;4818927;29;20500;-57
2023/03/16 05:52:24;;;;;;;6.83;3.37;;;1.50;99.90;;;;;;4819944;29;20474;-56
2023/03/16 05:54:57;;;;;;;5.93;2.80;;;1.50;99.90;;;;;;4843074;29;20481;-57
2023/03/16 05:57:25;;;;;;;4.77;3.00;;;1.60;99.90;;;;;;4857121;29;20971;-57
2023/03/16 05:59:56;;;;;;;4.87;3.30;;;1.60;99.90;;;;;;4839707;29;20469;-57
2023/03/16 06:02:26;;;;;;;6.03;3.60;;;1.60;99.90;;;;;;4809030;29;20546;-56
2023/03/16 06:05:03;;;;;;;12.27;4.90;;;1.60;99.90;;;;;;4843149;29;20554;-57
2023/03/16 06:07:34;;;;;;;9.13;4.20;;;1.60;99.90;;;;;;4815974;29;20552;-57
2023/03/16 06:10:05;;;;;;;5.83;3.63;;;1.60;99.90;;;;;;4814811;29;21012;-57
2023/03/16 06:12:35;;;;;;;8.93;3.70;;;1.70;99.90;;;;;;4800372;29;20581;-57
2023/03/16 06:15:07;;;;;;;5.80;3.30;;;1.70;99.90;;;;;;4813831;29;20915;-57
2023/03/16 06:17:38;;;;;;;8.50;3.37;;;1.70;99.90;;;;;;4812179;29;20568;-57
2023/03/16 06:20:12;;;;;;;6.30;3.13;;;1.80;99.90;;;;;;4808540;29;20505;-56
2023/03/16 06:22:44;;;;;;;7.60;3.37;;;1.80;99.90;;;;;;4827381;29;20478;-57
2023/03/16 06:25:15;;;;;;;7.37;3.83;;;1.80;99.90;;;;;;4823559;29;20569;-57
2023/03/16 06:27:50;;;;;;;5.37;3.30;;;1.80;99.90;;;;;;4820552;29;20655;-57
2023/03/16 06:30:20;;;;;;;8.70;4.20;;;1.90;99.90;;;;;;4822650;29;20897;-58
2023/03/16 06:32:49;;;;;;;5.10;3.53;;;1.90;99.90;;;;;;4804441;29;21672;-56
2023/03/16 06:35:27;;;;;;;8.73;3.43;;;2.00;99.90;;;;;;4801861;29;20481;-57
2023/03/16 06:38:16;;;;;;;6.77;3.20;;;2.00;99.90;;;;;;4811279;29;20490;-57
2023/03/16 06:41:06;;;;;;;5.43;3.27;;;2.00;99.90;;;;;;4816899;29;20511;-57
2023/03/16 06:43:36;;;;;;;9.07;4.37;;;2.10;99.90;;;;;;4815792;29;21007;-57
2023/03/16 06:46:07;;;;;;;6.33;3.80;;;2.10;99.90;;;;;;4816736;29;20536;-56
2023/03/16 06:48:37;;;;;;;9.20;3.53;;;2.20;99.90;;;;;;4807658;29;20486;-57
2023/03/16 06:51:06;;;;;;;8.60;3.90;;;2.20;99.90;;;;;;4808772;29;21034;-57
2023/03/16 06:53:38;;;;;;;8.40;3.27;;;2.30;99.90;;;;;;4815486;29;21004;-57
2023/03/16 06:56:12;;;;;;;5.67;3.30;;;2.40;99.90;;;;;;4814382;29;20475;-56
2023/03/16 06:58:48;;;;;;;6.43;3.30;;;2.40;99.90;;;;;;4810266;29;20996;-56
2023/03/16 07:01:27;;;;;;;5.43;3.00;;;2.50;99.90;;;;;;4823367;29;21015;-57
2023/03/16 07:04:06;;;;;;;4.90;3.20;;;2.50;99.90;;;;;;4833023;29;20990;-57
2023/03/16 07:06:35;;;;;;;7.63;3.93;;;2.60;99.90;;;;;;4825400;29;20907;-57
2023/03/16 07:09:09;;;;;;;8.17;3.60;;;2.60;99.90;;;;;;4826728;29;20578;-56
2023/03/16 07:11:51;;;;;;;6.23;3.43;;;2.70;99.90;;;;;;4840459;29;20974;-57
2023/03/16 07:14:22;;;;;;;7.30;3.53;;;2.80;99.90;;;;;;4829660;29;20982;-57
2023/03/16 07:16:53;;;;;;;5.93;3.40;;;2.80;99.90;;;;;;4821958;29;20478;-57
2023/03/16 07:19:27;;;;;;;6.47;3.37;;;2.80;99.90;;;;;;4819732;29;20531;-57
2023/03/16 07:22:02;;;;;;;4.83;2.80;;;3.00;99.90;;;;;;4832678;29;20991;-57
2023/03/16 07:24:36;;;;;;;5.80;3.00;;;3.10;99.90;;;;;;4822453;29;20474;-56
2023/03/16 07:27:06;;;;;;;4.17;2.73;;;3.20;99.90;;;;;;4824146;29;20469;-57
2023/03/16 07:29:36;;;;;;;7.50;2.57;;;3.40;99.90;;;;;;4821709;29;20499;-57
2023/03/16 07:32:06;;;;;;;5.77;2.47;;;3.50;99.90;;;;;;4829690;29;20858;-57
2023/03/16 07:34:40;;;;;;;5.97;2.30;;;3.70;99.90;;;;;;4823846;29;20489;-57
2023/03/16 07:37:23;;;;;;;5.67;2.67;;;3.90;99.90;;;;;;4808622;29;21089;-57
2023/03/16 07:39:59;;;;;;;5.17;2.10;;;4.10;99.90;;;;;;4829115;29;20486;-58
2023/03/16 07:42:42;;;;;;;5.23;1.80;;;4.40;99.90;;;;;;4838179;29;20871;-57
2023/03/16 07:45:28;;;;;;;3.27;2.03;;;4.60;99.90;;;;;;4833648;29;20488;-58
2023/03/16 07:48:07;;;;;;;5.63;2.27;;;4.80;99.90;;;;;;4852728;29;20472;-57
2023/03/16 07:50:46;;;;;;;4.63;2.03;;;4.90;99.90;;;;;;4838468;29;20492;-58
2023/03/16 07:53:34;;;;;;;5.20;2.47;;;4.80;99.90;;;;;;4838521;29;20989;-57
2023/03/16 07:56:21;;;;;;;3.13;1.90;;;4.90;99.90;;;;;;4815939;29;20485;-57
2023/03/16 07:59:01;;;;;;;4.47;2.33;;;5.10;99.90;;;;;;4832905;29;20539;-57
2023/03/16 08:01:41;;;;;;;4.10;1.90;;;5.20;99.90;;;;;;4836324;29;21027;-58
2023/03/16 08:04:16;;;;;;;9.17;2.33;;;5.40;99.90;;;;;;4835109;29;20482;-58
2023/03/16 08:06:58;;;;;;;4.73;1.80;;;5.60;99.90;;;;;;4833622;29;20512;-58
2023/03/16 08:09:46;;;;;;;3.87;1.97;;;5.70;99.90;;;;;;4834295;29;20513;-58
2023/03/16 08:12:40;;;;;;;6.47;2.47;;;5.60;99.90;;;;;;4845968;29;20487;-58
2023/03/16 08:15:14;;;;;;;4.10;1.87;;;5.80;99.90;;;;;;4849109;29;20482;-58
2023/03/16 08:17:52;;;;;;;5.30;2.30;;;5.90;99.90;;;;;;4821068;29;20484;-58
2023/03/16 08:20:34;;;;;;;5.03;2.40;;;6.00;99.90;;;;;;4841237;29;20813;-57
2023/03/16 08:23:07;;;;;;;5.87;2.40;;;6.00;99.90;;;;;;4825127;29;20234;-58
2023/03/16 08:25:50;;;;;;;5.20;2.20;;;6.10;99.90;;;;;;4830426;29;20712;-58
2023/03/16 08:28:20;;;;;;;7.70;2.40;;;6.20;99.90;;;;;;4830190;29;20233;-57
2023/03/16 08:31:09;;;;;;;3.90;2.13;;;6.20;99.90;;;;;;4825407;29;20488;-58
2023/03/16 08:33:48;;;;;;;4.07;1.90;;;6.30;99.90;;;;;;4833683;29;20267;-57
2023/03/16 08:36:39;;;;;;;3.80;1.90;;;6.30;99.90;;;;;;4826898;29;20236;-57
2023/03/16 08:39:11;;;;;;;5.33;1.97;;;6.50;99.90;;;;;;4828994;29;20674;-57
2023/03/16 08:41:52;;;;;;;3.07;1.87;;;6.60;99.90;;;;;;4828194;29;20721;-57
2023/03/16 08:44:36;;;;;;;5.07;2.63;;;6.70;99.90;;;;;;4831179;29;20643;-58
2023/03/16 08:47:13;;;;;;;5.73;2.60;;;6.80;99.90;;;;;;4838648;29;20237;-58
2023/03/16 08:49:45;;;;;;;4.17;2.00;;;7.10;99.90;;;;;;4819438;29;20244;-58
2023/03/16 08:52:24;;;;;;;5.73;2.10;;;7.30;99.90;;;;;;4823522;29;20708;-58
2023/03/16 08:57:49;;;;;;;5.63;2.27;;;7.60;99.90;;;;;;4822299;29;20241;-58
2023/03/16 09:00:33;;;;;;;6.77;2.17;;;7.60;99.90;;;;;;4843473;29;20227;-58
2023/03/16 09:03:12;;;;;;;4.67;2.17;;;7.70;99.90;;;;;;4844192;29;20699;-58
2023/03/16 09:05:41;;;;;;;4.73;2.10;;;7.90;99.90;;;;;;4843855;29;20238;-58
2023/03/16 09:08:55;;;;;;;5.57;2.27;;;8.00;99.90;;;;;;4828597;29;20235;-58
2023/03/16 09:11:29;;;;;;;3.67;1.80;;;8.00;99.90;;;;;;4832591;29;20278;-59
2023/03/16 09:14:15;;;;;;;3.17;1.67;;;8.10;99.90;;;;;;4837506;29;20637;-59
2023/03/16 09:16:53;;;;;;;4.90;2.10;;;8.20;99.90;;;;;;4843586;29;20629;-59
2023/03/16 09:19:27;;;;;;;3.57;1.80;;;8.10;99.90;;;;;;4836047;29;20238;-59
2023/03/16 09:22:18;;;;;;;5.10;2.10;;;8.10;99.90;;;;;;4832140;29;20269;-59
2023/03/16 09:24:52;;;;;;;4.47;1.80;;;8.10;99.90;;;;;;4825220;29;20246;-58
2023/03/16 09:27:32;;;;;;;4.63;1.73;;;8.10;99.90;;;;;;4840916;29;20722;-59
2023/03/16 09:30:09;;;;;;;6.97;2.27;;;8.00;99.90;;;;;;4843445;29;20235;-59
2023/03/16 09:32:47;;;;;;;3.20;1.97;;;7.90;99.90;;;;;;4836720;29;20652;-59
2023/03/16 09:35:42;;;;;;;5.00;2.00;;;7.90;99.90;;;;;;4843171;29;20227;-59
2023/03/16 09:44:13;;;;;;;4.43;1.57;;;7.90;99.90;;;;;;4844292;29;20249;-59
2023/03/16 09:46:54;;;;;;;5.77;1.90;;;7.80;99.90;;;;;;4843475;29;20649;-58
2023/03/16 09:52:37;;;;;;;4.53;1.57;;;7.80;99.90;;;;;;4842917;29;20322;-59
2023/03/16 09:55:19;;;;;;;6.57;2.10;;;7.80;99.90;;;;;;4842755;29;20227;-59
2023/03/16 09:58:05;;;;;;;7.17;1.97;;;8.00;99.90;;;;;;4825107;29;20719;-59
2023/03/16 10:00:41;;;;;;;3.57;1.80;;;8.10;99.90;;;;;;4840423;29;20273;-59
2023/03/16 10:03:28;;;;;;;6.17;2.37;;;8.10;99.90;;;;;;4830263;29;20246;-59
2023/03/16 10:06:15;;;;;;;4.33;1.97;;;8.10;99.90;;;;;;4841543;29;20227;-59
2023/03/16 10:08:54;;;;;;;5.33;1.80;;;8.10;99.90;;;;;;4842780;29;20253;-58
2023/03/16 10:11:40;;;;;;;3.83;1.67;;;8.00;99.90;;;;;;4806395;29;20713;-59
2023/03/16 10:14:18;;;;;;;3.73;1.47;;;8.10;99.90;;;;;;4805556;29;20727;-59
2023/03/16 10:16:59;;;;;;;4.33;1.77;;;8.30;99.90;;;;;;4806233;29;20240;-59
2023/03/16 10:19:37;;;;;;;4.17;1.63;;;8.50;99.90;;;;;;4829552;29;20281;-59
2023/03/16 10:22:22;;;;;;;3.87;1.47;;;8.70;99.90;;;;;;4842680;29;20670;-59
2023/03/16 10:25:32;;;;;;;4.63;1.63;;;9.00;99.90;;;;;;4806500;29;20248;-59
2023/03/16 10:28:20;;;;;;;4.83;1.30;;;8.90;99.90;;;;;;4816873;29;20295;-59
2023/03/16 10:30:53;;;;;;;3.47;1.70;;;8.70;99.90;;;;;;4824165;29;20322;-59
2023/03/16 10:33:26;;;;;;;3.17;1.40;;;8.80;99.90;;;;;;4826935;29;20780;-59
2023/03/16 10:36:19;;;;;;;3.40;1.57;;;8.80;99.90;;;;;;4824640;29;20312;-59
2023/03/16 10:39:06;;;;;;;5.30;1.43;;;9.10;99.90;;;;;;4824896;29;20231;-59
2023/03/16 10:41:44;;;;;;;3.67;1.30;;;9.40;99.90;;;;;;4825399;29;20301;-59
2023/03/16 10:44:26;;;;;;;2.13;1.10;;;9.60;99.90;;;;;;4825240;29;20236;-59
2023/03/16 10:47:06;;;;;;;2.60;1.30;;;9.80;99.90;;;;;;4824049;29;20239;-59
2023/03/16 10:49:47;;;;;;;2.77;1.13;;;10.10;99.90;;;;;;4833964;29;20244;-59
2023/03/16 10:52:41;;;;;;;5.17;1.37;;;10.00;99.90;;;;;;4842279;29;20276;-59
2023/03/16 10:55:22;;;;;;;2.43;1.43;;;10.00;99.90;;;;;;4842402;29;20240;-59
2023/03/16 10:58:04;;;;;;;2.70;1.37;;;10.00;99.90;;;;;;4807519;29;20325;-59
2023/03/16 11:00:40;;;;;;;4.27;1.50;;;10.10;99.90;;;;;;4832308;29;20371;-59
2023/03/16 11:03:22;;;;;;;4.43;1.40;;;10.10;99.90;;;;;;4805388;29;20251;-59
2023/03/16 11:06:03;;;;;;;5.10;1.43;;;10.30;99.90;;;;;;4805678;29;20233;-59
2023/03/16 11:08:36;;;;;;;4.53;1.40;;;10.40;99.90;;;;;;4805618;29;20241;-59
2023/03/16 11:11:18;;;;;;;2.37;1.13;;;10.60;99.90;;;;;;4835496;29;20241;-59
2023/03/16 11:13:58;;;;;;;4.77;1.50;;;10.50;99.90;;;;;;4841614;29;20590;-59
2023/03/16 11:16:44;;;;;;;4.67;1.40;;;10.50;99.90;;;;;;4834729;29;20256;-59
2023/03/16 11:19:34;;;;;;;4.30;1.30;;;10.50;99.90;;;;;;4829020;29;20230;-59
2023/03/16 11:22:19;;;;;;;3.30;1.10;;;10.30;99.90;;;;;;4824530;29;20639;-59
2023/03/16 11:24:59;;;;;;;3.07;1.13;;;10.30;99.90;;;;;;4820058;29;20283;-59
2023/03/16 11:27:58;;;;;;;3.80;1.27;;;10.40;99.90;;;;;;4827664;29;20243;-59
2023/03/16 11:30:46;;;;;;;2.13;1.10;;;10.30;99.90;;;;;;4826789;29;20638;-59
2023/03/16 11:33:26;;;;;;;1.50;1.00;;;10.30;99.90;;;;;;4826931;29;20236;-59
2023/03/16 11:36:17;;;;;;;3.47;1.20;;;10.20;99.90;;;;;;4826158;29;20245;-59
2023/03/16 11:39:03;;;;;;;2.37;1.00;;;10.30;99.90;;;;;;4826849;29;20226;-59
2023/03/16 11:41:49;;;;;;;3.93;1.20;;;10.30;99.90;;;;;;4827047;29;20261;-59
2023/03/16 11:47:49;;;;;;;2.27;1.10;;;10.50;99.90;;;;;;4831162;29;20638;-59
2023/03/16 11:50:37;;;;;;;3.00;1.13;;;10.60;99.90;;;;;;4823919;29;20750;-59
2023/03/16 11:53:22;;;;;;;3.73;1.30;;;10.60;99.90;;;;;;4808833;29;20256;-59
2023/03/16 11:56:10;;;;;;;2.73;1.00;;;10.60;99.90;;;;;;4827372;29;20266;-59
2023/03/16 11:58:53;;;;;;;2.30;0.93;;;10.60;99.90;;;;;;4836277;29;20238;-59
2023/03/16 12:01:37;;;;;;;4.07;1.10;;;10.50;99.90;;;;;;4831060;29;20594;-59
2023/03/16 12:04:45;;;;;;;4.13;1.20;;;10.60;99.90;;;;;;4825303;29;20670;-59
2023/03/16 12:07:34;;;;;;;3.43;1.10;;;10.40;99.90;;;;;;4808683;29;20729;-59
2023/03/16 12:10:19;;;;;;;3.30;1.20;;;10.50;99.90;;;;;;4808620;29;20602;-59
2023/03/16 12:13:29;;;;;;;3.40;1.30;;;10.60;99.90;;;;;;4813262;29;20227;-59
2023/03/16 12:16:19;;;;;;;2.47;1.13;;;10.60;99.90;;;;;;4815816;29;20755;-59
2023/03/16 12:19:02;;;;;;;3.37;1.10;;;10.50;99.90;;;;;;4822409;29;20674;-59
2023/03/16 12:22:04;;;;;;;4.07;1.20;;;10.40;99.90;;;;;;4834510;29;20235;-59
2023/03/16 12:24:54;;;;;;;3.03;1.13;;;10.50;99.90;;;;;;4843299;29;20350;-59
2023/03/16 12:27:35;;;;;;;2.53;1.20;;;10.30;99.90;;;;;;4837378;29;20633;-60
2023/03/16 12:30:34;;;;;;;2.73;1.17;;;10.40;99.90;;;;;;4839618;29;20245;-60
2023/03/16 12:33:18;;;;;;;3.57;0.90;;;10.40;99.90;;;;;;4839866;29;20318;-59
2023/03/16 12:36:09;;;;;;;2.43;1.20;;;10.30;99.90;;;;;;4826780;29;20260;-59
2023/03/16 12:42:01;;;;;;;2.03;1.07;;;10.40;99.90;;;;;;4807852;29;20255;-59
2023/03/16 12:44:44;;;;;;;1.60;1.07;;;10.20;99.90;;;;;;4807766;29;20331;-59
2023/03/16 12:47:35;;;;;;;2.73;0.97;;;10.30;99.90;;;;;;4806808;29;20746;-59
2023/03/16 12:50:20;;;;;;;3.33;1.10;;;10.30;99.90;;;;;;4837508;29;20251;-59
2023/03/16 12:52:51;;;;;;;3.33;1.10;;;10.30;99.90;;;;;;4822149;29;20711;-59
2023/03/16 12:58:33;;;;;;;2.47;1.37;;;10.30;99.90;;;;;;4817062;29;20239;-59
2023/03/16 13:01:11;;;;;;;3.27;1.27;;;10.20;99.90;;;;;;4818350;29;20244;-59
2023/03/16 13:03:53;;;;;;;2.77;0.90;;;10.20;99.90;;;;;;4821086;29;20249;-59
2023/03/16 13:06:37;;;;;;;2.03;1.23;;;10.20;99.90;;;;;;4825468;29;20249;-59
2023/03/16 13:09:14;;;;;;;2.47;1.20;;;10.10;99.90;;;;;;4825794;29;20264;-59
2023/03/16 13:12:24;;;;;;;1.87;1.00;;;9.80;99.90;;;;;;4825509;29;20323;-59
2023/03/16 13:15:33;;;;;;;3.23;1.07;;;9.80;99.90;;;;;;4826595;29;20230;-59
2023/03/16 13:18:26;;;;;;;2.67;0.97;;;9.80;99.90;;;;;;4817912;29;20283;-59
2023/03/16 13:21:15;;;;;;;2.00;1.23;;;9.70;99.90;;;;;;4842685;29;20723;-59
2023/03/16 13:24:00;;;;;;;3.17;1.00;;;9.80;99.90;;;;;;4844172;29;20600;-59
2023/03/16 13:26:42;;;;;;;2.83;1.00;;;9.70;99.90;;;;;;4843436;29;20224;-59
2023/03/16 13:29:54;;;;;;;2.97;1.30;;;9.60;99.90;;;;;;4835170;29;20250;-59
2023/03/16 13:32:36;;;;;;;1.93;0.90;;;9.50;99.90;;;;;;4816273;29;20652;-59
2023/03/16 13:35:18;;;;;;;2.23;1.07;;;9.50;99.90;;;;;;4806028;29;20237;-59
2023/03/16 13:38:05;;;;;;;3.23;1.10;;;9.40;99.90;;;;;;4806967;29;20233;-59
2023/03/16 13:40:38;;;;;;;2.10;0.97;;;9.50;99.90;;;;;;4806874;29;20233;-59
2023/03/16 13:43:17;;;;;;;2.93;1.17;;;9.50;99.90;;;;;;4814455;29;20235;-59
2023/03/16 13:45:58;;;;;;;4.93;1.10;;;9.40;99.90;;;;;;4814644;29;20626;-59
2023/03/16 13:48:31;;;;;;;6.10;1.10;;;9.40;99.90;;;;;;4836802;29;20742;-59
2023/03/16 13:51:02;;;;;;;3.13;1.10;;;9.50;99.90;;;;;;4841370;29;20308;-59
2023/03/16 13:53:39;;;;;;;3.50;0.93;;;9.60;99.90;;;;;;4841984;29;20232;-59
2023/03/16 13:56:25;;;;;;;3.37;1.10;;;9.60;99.90;;;;;;4843230;29;20302;-59
2023/03/16 13:59:04;;;;;;;3.27;1.27;;;9.60;99.90;;;;;;4842984;29;20246;-59
2023/03/16 14:01:39;;;;;;;1.33;0.70;;;9.70;99.90;;;;;;4842576;29;20711;-59
2023/03/16 14:04:27;;;;;;;1.30;0.80;;;9.90;99.90;;;;;;4840398;29;20279;-59
2023/03/16 14:07:15;;;;;;;2.67;1.13;;;9.90;99.90;;;;;;4806317;29;20240;-59
2023/03/16 14:09:49;;;;;;;3.07;1.20;;;9.90;99.90;;;;;;4819862;29;20240;-59
2023/03/16 14:12:22;;;;;;;2.80;1.27;;;10.10;99.90;;;;;;4836522;29;20740;-59
2023/03/16 14:14:58;;;;;;;3.17;1.37;;;10.00;99.90;;;;;;4841800;29;20247;-59
2023/03/16 14:17:56;;;;;;;4.20;1.30;;;9.90;99.90;;;;;;4842957;29;20236;-59
2023/03/16 14:20:47;;;;;;;3.37;1.40;;;10.10;99.90;;;;;;4836453;29;20256;-59